createdAt,value
2023-01-20T04:43:44.697Z,8.40
2023-01-20T04:46:12.752Z,8.00
2023-01-20T04:48:39.904Z,7.40
2023-01-20T04:51:07.341Z,7.40
2023-01-20T04:53:34.706Z,8.80
2023-01-20T04:56:01.682Z,7.00
2023-01-20T04:58:28.716Z,8.10
2023-01-20T05:00:55.779Z,7.60
2023-01-20T05:03:22.647Z,9.70
2023-01-20T05:05:54.299Z,10.70
2023-01-20T05:08:21.316Z,13.10
2023-01-20T05:10:48.265Z,14.60
2023-01-20T05:13:15.102Z,12.60
2023-01-20T05:15:42.537Z,12.90
2023-01-20T05:18:09.357Z,11.20
2023-01-20T05:20:36.251Z,11.60
2023-01-20T05:23:03.653Z,11.70
2023-01-20T05:25:30.541Z,15.60
2023-01-20T05:27:58.796Z,13.20
2023-01-20T05:30:25.911Z,13.00
2023-01-20T05:32:52.827Z,9.00
2023-01-20T05:35:19.781Z,9.50
2023-01-20T05:37:46.724Z,12.10
2023-01-20T05:40:13.775Z,8.60
2023-01-20T05:42:40.721Z,8.70
2023-01-20T05:45:09.457Z,7.40
2023-01-20T05:47:36.464Z,8.30
2023-01-20T05:50:04.632Z,8.30
2023-01-20T05:52:31.690Z,9.10
2023-01-20T05:54:58.630Z,11.10
2023-01-20T05:57:25.988Z,9.10
2023-01-20T05:59:53.033Z,7.60
2023-01-20T06:02:20.219Z,8.60
2023-01-20T06:04:47.328Z,8.00
2023-01-20T06:07:14.795Z,9.70
2023-01-20T06:09:41.842Z,9.50
2023-01-20T06:12:08.797Z,9.30
2023-01-20T06:14:35.745Z,10.60
2023-01-20T06:17:02.689Z,10.10
2023-01-20T06:19:29.639Z,11.60
2023-01-20T06:21:56.592Z,10.70
2023-01-20T06:24:23.528Z,9.90
2023-01-20T06:26:51.346Z,8.90
2023-01-20T06:29:18.955Z,9.60
2023-01-20T06:31:46.972Z,10.20
2023-01-20T06:34:13.954Z,8.60
2023-01-20T06:36:40.778Z,10.20
2023-01-20T06:39:07.659Z,8.30
2023-01-20T06:41:34.525Z,7.60
2023-01-20T06:44:01.461Z,8.00
2023-01-20T06:46:28.415Z,8.20
2023-01-20T06:49:00.914Z,7.60
2023-01-20T06:51:28.894Z,9.90
2023-01-20T06:53:56.001Z,8.80
2023-01-20T06:56:23.058Z,8.80
2023-01-20T06:58:50.224Z,8.30
2023-01-20T07:01:25.375Z,8.60
2023-01-20T07:03:52.425Z,6.70
2023-01-20T07:06:25.899Z,7.10
2023-01-20T07:08:52.941Z,8.20
2023-01-20T07:11:19.893Z,7.80
2023-01-20T07:13:46.837Z,8.60
2023-01-20T07:16:15.862Z,9.20
2023-01-20T07:18:43.950Z,7.20
2023-01-20T07:21:11.611Z,8.10
2023-01-20T07:23:38.515Z,7.00
2023-01-20T07:26:07.317Z,7.50
2023-01-20T07:28:34.798Z,7.40
2023-01-20T07:31:15.610Z,7.50
2023-01-20T07:33:42.686Z,11.20
2023-01-20T07:36:09.822Z,9.00
2023-01-20T07:38:36.727Z,7.20
2023-01-20T07:41:05.326Z,8.60
2023-01-20T07:43:32.241Z,6.40
2023-01-20T07:46:03.178Z,7.80
2023-01-20T07:48:31.336Z,8.10
2023-01-20T07:51:02.951Z,9.00
2023-01-20T07:53:30.272Z,8.90
2023-01-20T07:56:00.113Z,8.30
2023-01-20T07:58:27.004Z,9.80
2023-01-20T08:00:54.533Z,7.10
2023-01-20T08:03:21.618Z,6.70
2023-01-20T08:05:48.700Z,7.10
2023-01-20T08:08:15.533Z,7.80
2023-01-20T08:10:42.389Z,8.40
2023-01-20T08:13:12.409Z,8.80
2023-01-20T08:15:39.418Z,7.80
2023-01-20T08:18:06.366Z,7.50
2023-01-20T08:20:33.310Z,8.10
2023-01-20T08:23:00.139Z,8.60
2023-01-20T08:25:26.970Z,8.90
2023-01-20T08:27:53.842Z,7.90
2023-01-20T08:30:20.689Z,7.30
2023-01-20T08:32:47.639Z,8.90
2023-01-20T08:35:14.915Z,6.80
2023-01-20T08:37:42.936Z,10.50
2023-01-20T08:40:10.704Z,8.00
2023-01-20T08:42:37.701Z,8.50
2023-01-20T08:45:05.743Z,10.40
2023-01-20T08:47:36.484Z,10.00
2023-01-20T08:50:04.966Z,12.30
2023-01-20T08:52:32.033Z,9.00
2023-01-20T10:28:29.866Z,7.90
2023-01-20T10:30:58.555Z,9.20
2023-01-20T10:33:30.707Z,8.40
2023-01-20T10:36:00.833Z,9.10
2023-01-20T10:38:34.913Z,7.30
2023-01-20T10:41:19.782Z,7.50
2023-01-20T10:43:47.759Z,8.70
2023-01-20T10:46:25.928Z,8.60
2023-01-20T10:49:32.298Z,8.10
2023-01-20T10:52:00.108Z,8.50
2023-01-20T10:55:02.739Z,7.90
2023-01-20T10:57:29.685Z,8.70
2023-01-20T11:00:28.166Z,8.40
2023-01-20T11:02:58.983Z,7.20
2023-01-20T11:05:27.741Z,7.50
2023-01-20T11:07:54.875Z,7.20
2023-01-20T11:10:29.324Z,7.40
2023-01-20T11:13:00.698Z,7.90
2023-01-20T11:15:35.981Z,7.80
2023-01-20T11:18:15.381Z,6.70
2023-01-20T11:20:50.649Z,6.10
2023-01-20T11:23:37.109Z,6.90
2023-01-20T11:26:11.991Z,7.80
2023-01-20T11:29:00.229Z,8.30
2023-01-20T11:31:54.166Z,8.80
2023-01-20T11:34:26.587Z,7.30
2023-01-20T11:37:05.780Z,6.60
2023-01-20T11:39:36.811Z,7.00
2023-01-20T11:42:27.606Z,8.10
2023-01-20T11:45:21.512Z,8.30
2023-01-20T11:48:01.626Z,8.20
2023-01-20T11:50:30.292Z,8.90
2023-01-20T11:53:21.631Z,7.70
2023-01-20T11:55:50.795Z,8.60
2023-01-20T11:58:23.389Z,8.30
2023-01-20T12:00:52.234Z,8.90
2023-01-20T12:03:33.017Z,9.20
2023-01-20T12:06:26.011Z,7.70
2023-01-20T12:09:03.890Z,9.00
2023-01-20T12:11:32.814Z,8.50
2023-01-20T12:14:21.386Z,9.00
2023-01-20T12:17:00.509Z,9.50
2023-01-20T12:19:33.892Z,8.80
2023-01-20T12:22:02.514Z,8.50
2023-01-20T12:24:52.970Z,7.40
2023-01-20T12:27:23.529Z,7.50
2023-01-20T12:29:51.418Z,7.50
2023-01-20T12:32:18.321Z,8.00
2023-01-20T12:34:45.267Z,7.70
2023-01-20T12:37:35.801Z,8.30
2023-01-20T12:40:08.523Z,8.10
2023-01-20T12:43:13.013Z,7.70
2023-01-20T12:45:45.984Z,9.60
2023-01-20T12:48:42.920Z,7.80
2023-01-20T12:51:55.236Z,8.30
2023-01-20T12:54:48.410Z,8.50
2023-01-20T12:57:16.020Z,9.80
2023-01-20T12:59:49.145Z,8.10
2023-01-20T13:02:15.997Z,8.00
2023-01-20T13:05:11.939Z,9.10
2023-01-20T13:08:10.260Z,8.40
2023-01-20T13:11:05.281Z,8.70
2023-01-20T13:13:42.411Z,8.70
2023-01-20T13:16:29.689Z,8.40
2023-01-20T13:19:03.729Z,8.20
2023-01-20T13:21:31.899Z,7.10
2023-01-20T13:24:02.848Z,6.10
2023-01-20T13:26:30.161Z,6.70
2023-01-20T13:28:57.472Z,11.00
2023-01-20T13:31:36.854Z,8.10
2023-01-20T13:34:22.479Z,9.50
2023-01-20T13:37:09.818Z,7.40
2023-01-20T13:39:40.901Z,6.00
2023-01-20T13:42:26.843Z,7.20
2023-01-20T13:45:12.373Z,7.40
2023-01-20T13:48:02.233Z,7.00
2023-01-20T13:50:34.199Z,6.30
2023-01-20T13:53:07.667Z,7.30
2023-01-20T13:55:40.991Z,6.50
2023-01-20T13:58:14.507Z,6.20
2023-01-20T14:00:41.628Z,7.40
2023-01-20T14:03:35.499Z,6.80
2023-01-20T14:06:02.410Z,6.10
2023-01-20T14:08:31.351Z,5.20
2023-01-20T14:11:17.186Z,6.30
2023-01-20T14:13:55.382Z,6.20
2023-01-20T14:16:34.821Z,7.30
2023-01-20T14:19:34.748Z,7.20
2023-01-20T14:22:03.395Z,6.40
2023-01-20T14:24:49.834Z,5.60
2023-01-20T14:27:16.738Z,6.00
2023-01-20T14:29:44.444Z,6.80
2023-01-20T14:32:20.035Z,8.10
2023-01-20T14:34:48.981Z,10.50
2023-01-20T14:37:28.015Z,9.70
2023-01-20T14:39:56.942Z,7.70
2023-01-20T14:42:24.032Z,7.00
2023-01-20T14:44:52.052Z,8.50
2023-01-20T14:47:19.998Z,9.40
2023-01-20T14:49:51.309Z,8.60
2023-01-20T14:52:29.514Z,10.40
2023-01-20T14:54:56.764Z,9.40
2023-01-20T14:57:27.740Z,10.10
2023-01-20T15:00:13.129Z,9.10
2023-01-20T15:02:41.354Z,8.40
2023-01-20T15:05:29.989Z,9.30
2023-01-20T15:08:14.307Z,9.50
2023-01-20T15:10:41.439Z,9.60
2023-01-20T15:13:25.180Z,9.30
2023-01-20T15:15:52.177Z,10.60
2023-01-20T15:18:23.192Z,11.30
2023-01-20T15:21:03.899Z,10.10
2023-01-20T15:23:39.538Z,10.90
2023-01-20T15:26:08.707Z,11.00
2023-01-20T15:28:38.333Z,9.70
2023-01-20T15:31:05.924Z,9.90
2023-01-20T15:33:32.930Z,10.40
2023-01-20T15:36:00.322Z,10.40
2023-01-20T15:38:32.046Z,10.20
2023-01-20T15:40:59.063Z,9.70
2023-01-20T15:43:25.974Z,9.80
2023-01-20T15:45:52.839Z,10.50
2023-01-20T15:48:21.245Z,10.90
2023-01-20T15:50:48.880Z,10.80
2023-01-20T15:53:15.843Z,11.20
2023-01-20T15:55:50.425Z,11.20
2023-01-20T15:58:27.461Z,12.10
2023-01-20T16:00:55.751Z,11.20
2023-01-20T16:03:23.778Z,11.20
2023-01-20T16:05:51.321Z,11.60
2023-01-20T16:08:19.647Z,13.50
2023-01-20T16:10:46.561Z,12.70
2023-01-20T16:13:13.575Z,11.80
2023-01-20T16:18:33.730Z,12.70
2023-01-20T16:21:00.644Z,12.80
2023-01-20T16:23:27.496Z,15.00
2023-01-20T16:25:54.874Z,14.30
2023-01-20T16:28:24.159Z,15.00
2023-01-20T16:30:51.868Z,13.00
2023-01-20T16:33:22.456Z,13.50
2023-01-20T16:35:56.063Z,12.80
2023-01-20T16:38:28.478Z,14.10
2023-01-20T16:41:04.108Z,15.20
2023-01-20T16:43:30.981Z,14.30
2023-01-20T16:45:57.906Z,14.40
2023-01-20T16:48:25.811Z,13.70
2023-01-20T16:50:52.950Z,16.40
2023-01-20T16:53:20.095Z,16.30
2023-01-20T16:55:47.732Z,17.40
2023-01-20T16:58:15.308Z,16.80
2023-01-20T17:00:45.814Z,17.00
2023-01-20T17:03:12.732Z,19.00
2023-01-20T17:05:39.578Z,17.10
2023-01-20T17:08:06.538Z,16.70
2023-01-20T17:10:33.667Z,16.70
2023-01-20T17:13:00.997Z,16.00
2023-01-20T17:15:28.091Z,14.90
2023-01-20T17:17:58.240Z,16.80
2023-01-20T17:20:31.140Z,16.60
2023-01-20T17:22:58.264Z,19.40
2023-01-20T17:25:25.967Z,18.90
2023-01-20T17:27:52.970Z,18.60
2023-01-20T17:30:19.930Z,15.70
2023-01-20T17:32:48.084Z,15.50
2023-01-20T17:35:19.146Z,16.60
2023-01-20T17:37:46.218Z,17.30
2023-01-20T17:40:13.543Z,18.00
2023-01-20T17:42:40.664Z,15.90
2023-01-20T17:45:08.097Z,14.30
2023-01-20T17:47:35.049Z,15.70
2023-01-20T17:50:02.309Z,15.90
2023-01-20T17:52:32.443Z,14.80
2023-01-20T17:54:59.483Z,16.50
2023-01-20T17:57:27.191Z,16.00
2023-01-20T17:59:54.174Z,16.20
2023-01-20T18:02:22.664Z,15.40
2023-01-20T18:04:49.579Z,15.10
2023-01-20T18:07:16.487Z,15.70
2023-01-20T18:09:43.673Z,14.40
2023-01-20T18:12:13.451Z,19.00
2023-01-20T18:14:40.330Z,16.60
2023-01-20T18:17:07.285Z,15.70
2023-01-20T18:19:34.455Z,17.60
2023-01-20T18:22:05.859Z,14.50
2023-01-20T18:24:33.129Z,17.30
2023-01-20T18:27:00.143Z,15.70
2023-01-20T18:29:28.923Z,16.00
2023-01-20T18:31:58.220Z,15.10
2023-01-20T18:34:25.280Z,15.10
2023-01-20T18:36:54.973Z,14.50
2023-01-20T18:39:25.446Z,14.70
2023-01-20T18:41:52.398Z,14.10
2023-01-20T18:44:19.682Z,14.60
2023-01-20T18:46:46.857Z,16.90
2023-01-20T18:49:15.168Z,16.10
2023-01-20T18:51:45.063Z,16.00
2023-01-20T18:54:14.293Z,15.20
2023-01-20T18:56:41.620Z,17.20
2023-01-20T18:59:10.965Z,17.10
2023-01-20T19:01:39.913Z,19.80
2023-01-20T20:34:37.281Z,25.90
2023-01-20T20:37:04.121Z,26.20
2023-01-20T20:39:32.491Z,28.20
2023-01-20T20:41:59.340Z,26.00
2023-01-20T20:44:26.920Z,26.40
2023-01-20T20:46:57.440Z,25.90
2023-01-20T20:49:24.408Z,27.00
2023-01-20T20:51:51.337Z,26.70
2023-01-20T20:54:21.680Z,27.10
2023-01-20T20:56:48.406Z,27.10
2023-01-20T20:59:15.184Z,26.00
2023-01-20T21:01:45.224Z,27.00
2023-01-20T21:04:12.163Z,26.80
2023-01-20T21:06:39.362Z,28.40
2023-01-20T21:09:06.204Z,29.30
2023-01-20T21:11:33.094Z,28.80
2023-01-20T21:13:59.898Z,28.10
2023-01-20T21:16:27.477Z,29.10
2023-01-20T21:18:58.579Z,26.20
2023-01-20T21:21:26.008Z,28.00
2023-01-20T21:23:54.765Z,27.00
2023-01-20T21:26:22.659Z,28.60
2023-01-20T21:29:03.183Z,27.30
2023-01-20T21:31:30.684Z,27.60
2023-01-20T21:34:00.123Z,26.20
2023-01-20T21:36:27.788Z,28.70
2023-01-20T21:38:54.608Z,26.40
2023-01-20T21:41:25.186Z,28.10
2023-01-20T21:44:10.883Z,27.00
2023-01-20T21:46:39.466Z,28.90
2023-01-20T21:52:13.240Z,27.20
2023-01-20T21:54:40.645Z,27.40
2023-01-20T21:59:40.339Z,29.10
2023-01-20T22:02:12.380Z,28.20
2023-01-20T22:04:39.613Z,29.30
2023-01-20T22:07:06.851Z,28.50
2023-01-20T22:09:33.693Z,28.20
2023-01-20T22:12:01.047Z,30.10
2023-01-20T22:14:27.995Z,29.30
2023-01-20T22:16:55.077Z,30.50
2023-01-20T22:19:22.101Z,27.70
2023-01-20T22:21:49.039Z,30.10
2023-01-20T22:24:19.575Z,29.50
2023-01-20T22:26:47.712Z,30.60
2023-01-20T22:29:15.131Z,27.60
2023-01-20T22:31:46.868Z,30.30
2023-01-20T22:34:13.708Z,26.90
2023-01-20T22:36:40.964Z,30.70
2023-01-20T22:39:08.935Z,29.20
2023-01-20T22:41:36.649Z,29.50
2023-01-20T22:44:03.336Z,28.20
2023-01-20T22:46:30.387Z,29.30
2023-01-20T22:48:57.521Z,30.70
2023-01-20T22:51:28.057Z,30.00
2023-01-20T22:53:55.661Z,29.70
2023-01-20T22:56:25.245Z,31.20
2023-01-20T22:58:52.194Z,31.00
2023-01-20T23:01:20.832Z,32.50
2023-01-20T23:03:48.027Z,32.20
2023-01-20T23:06:14.705Z,31.80
2023-01-20T23:08:42.134Z,29.20
2023-01-20T23:11:13.282Z,31.00
2023-01-20T23:13:40.521Z,32.80
2023-01-20T23:16:10.858Z,31.30
2023-01-20T23:18:38.797Z,32.40
2023-01-20T23:21:06.483Z,31.50
2023-01-20T23:23:34.379Z,31.80
2023-01-20T23:26:15.171Z,31.00
2023-01-20T23:28:43.027Z,32.40
2023-01-20T23:31:11.046Z,29.30
2023-01-20T23:33:40.485Z,34.10
2023-01-20T23:36:13.468Z,33.70
2023-01-20T23:38:40.568Z,32.70
2023-01-20T23:41:07.796Z,31.30
2023-01-20T23:43:35.323Z,33.90
2023-01-20T23:46:04.031Z,34.80
2023-01-20T23:48:30.936Z,34.20
2023-01-20T23:51:01.532Z,33.00
2023-01-20T23:53:30.385Z,34.10
2023-01-20T23:56:21.202Z,36.20
2023-01-20T23:58:49.210Z,36.60
